sensor_id;sensor_type;location;lat;lon;timestamp;P1;durP1;ratioP1;P2;durP2;ratioP2
57101;SDS011;42982;54.558;18.508;2023-01-08T00:00:26;48.78;;;13.25;;
57101;SDS011;42982;54.558;18.508;2023-01-08T00:01:29;70.30;;;12.82;;
57101;SDS011;42982;54.558;18.508;2023-01-08T00:02:35;83.53;;;15.13;;
57101;SDS011;42982;54.558;18.508;2023-01-08T00:03:40;80.13;;;13.15;;
57101;SDS011;42982;54.558;18.508;2023-01-08T00:04:43;51.42;;;13.45;;
57101;SDS011;42982;54.558;18.508;2023-01-08T00:05:47;40.17;;;13.32;;
57101;SDS011;42982;54.558;18.508;2023-01-08T00:06:59;65.60;;;13.68;;
57101;SDS011;42982;54.558;18.508;2023-01-08T00:08:03;51.17;;;13.45;;
57101;SDS011;42982;54.558;18.508;2023-01-08T00:09:09;72.50;;;13.57;;
57101;SDS011;42982;54.558;18.508;2023-01-08T00:10:20;42.10;;;12.52;;
57101;SDS011;42982;54.558;18.508;2023-01-08T00:11:26;40.25;;;12.32;;
57101;SDS011;42982;54.558;18.508;2023-01-08T00:12:28;41.60;;;14.13;;
57101;SDS011;42982;54.558;18.508;2023-01-08T00:13:35;60.92;;;14.45;;
57101;SDS011;42982;54.558;18.508;2023-01-08T00:14:42;64.60;;;15.30;;
57101;SDS011;42982;54.558;18.508;2023-01-08T00:15:44;58.13;;;13.18;;
57101;SDS011;42982;54.558;18.508;2023-01-08T00:16:46;42.03;;;13.00;;
57101;SDS011;42982;54.558;18.508;2023-01-08T00:17:54;63.22;;;14.77;;
57101;SDS011;42982;54.558;18.508;2023-01-08T00:19:00;59.78;;;13.65;;
57101;SDS011;42982;54.558;18.508;2023-01-08T00:20:05;58.65;;;13.50;;
57101;SDS011;42982;54.558;18.508;2023-01-08T00:21:11;66.45;;;14.65;;
57101;SDS011;42982;54.558;18.508;2023-01-08T00:22:14;63.78;;;14.38;;
57101;SDS011;42982;54.558;18.508;2023-01-08T00:23:19;51.97;;;13.88;;
57101;SDS011;42982;54.558;18.508;2023-01-08T00:24:21;42.03;;;12.30;;
57101;SDS011;42982;54.558;18.508;2023-01-08T00:25:25;43.90;;;13.32;;
57101;SDS011;42982;54.558;18.508;2023-01-08T00:26:31;56.60;;;14.52;;
57101;SDS011;42982;54.558;18.508;2023-01-08T00:27:33;74.15;;;14.10;;
57101;SDS011;42982;54.558;18.508;2023-01-08T00:28:41;48.67;;;13.88;;
57101;SDS011;42982;54.558;18.508;2023-01-08T00:29:48;37.83;;;13.50;;
57101;SDS011;42982;54.558;18.508;2023-01-08T00:30:58;50.70;;;13.23;;
57101;SDS011;42982;54.558;18.508;2023-01-08T00:32:03;54.22;;;14.27;;
57101;SDS011;42982;54.558;18.508;2023-01-08T00:33:10;45.60;;;13.80;;
57101;SDS011;42982;54.558;18.508;2023-01-08T00:34:12;41.75;;;12.95;;
57101;SDS011;42982;54.558;18.508;2023-01-08T00:35:17;43.72;;;13.50;;
57101;SDS011;42982;54.558;18.508;2023-01-08T00:36:21;35.63;;;13.23;;
57101;SDS011;42982;54.558;18.508;2023-01-08T00:37:26;38.53;;;13.00;;
57101;SDS011;42982;54.558;18.508;2023-01-08T00:38:31;43.83;;;12.32;;
57101;SDS011;42982;54.558;18.508;2023-01-08T00:39:34;39.08;;;12.98;;
57101;SDS011;42982;54.558;18.508;2023-01-08T00:40:39;43.33;;;12.80;;
57101;SDS011;42982;54.558;18.508;2023-01-08T00:41:43;42.25;;;14.68;;
57101;SDS011;42982;54.558;18.508;2023-01-08T00:42:49;38.55;;;12.98;;
57101;SDS011;42982;54.558;18.508;2023-01-08T00:43:52;47.10;;;13.98;;
57101;SDS011;42982;54.558;18.508;2023-01-08T00:44:57;43.03;;;12.68;;
57101;SDS011;42982;54.558;18.508;2023-01-08T00:46:02;37.95;;;12.10;;
57101;SDS011;42982;54.558;18.508;2023-01-08T00:47:08;37.45;;;11.63;;
57101;SDS011;42982;54.558;18.508;2023-01-08T00:48:13;39.25;;;11.55;;
57101;SDS011;42982;54.558;18.508;2023-01-08T00:49:16;37.80;;;12.18;;
57101;SDS011;42982;54.558;18.508;2023-01-08T00:50:22;41.05;;;12.98;;
57101;SDS011;42982;54.558;18.508;2023-01-08T00:51:28;37.20;;;12.23;;
57101;SDS011;42982;54.558;18.508;2023-01-08T00:52:33;31.70;;;12.18;;
57101;SDS011;42982;54.558;18.508;2023-01-08T00:53:58;36.85;;;10.70;;
57101;SDS011;42982;54.558;18.508;2023-01-08T00:55:02;34.80;;;11.55;;
57101;SDS011;42982;54.558;18.508;2023-01-08T00:56:08;37.55;;;12.70;;
57101;SDS011;42982;54.558;18.508;2023-01-08T00:57:11;29.98;;;11.13;;
57101;SDS011;42982;54.558;18.508;2023-01-08T00:58:17;24.15;;;9.75;;
57101;SDS011;42982;54.558;18.508;2023-01-08T00:59:19;33.50;;;10.98;;
57101;SDS011;42982;54.558;18.508;2023-01-08T01:00:22;39.63;;;13.07;;
57101;SDS011;42982;54.558;18.508;2023-01-08T01:01:24;36.78;;;11.95;;
57101;SDS011;42982;54.558;18.508;2023-01-08T01:02:30;34.60;;;11.27;;
57101;SDS011;42982;54.558;18.508;2023-01-08T01:03:35;34.05;;;11.13;;
57101;SDS011;42982;54.558;18.508;2023-01-08T01:04:38;36.35;;;12.48;;
57101;SDS011;42982;54.558;18.508;2023-01-08T01:05:40;36.17;;;11.30;;
57101;SDS011;42982;54.558;18.508;2023-01-08T01:06:43;32.20;;;11.35;;
57101;SDS011;42982;54.558;18.508;2023-01-08T01:07:53;38.13;;;11.68;;
57101;SDS011;42982;54.558;18.508;2023-01-08T01:08:59;42.50;;;12.93;;
57101;SDS011;42982;54.558;18.508;2023-01-08T01:10:03;38.47;;;12.07;;
57101;SDS011;42982;54.558;18.508;2023-01-08T01:11:11;32.22;;;11.15;;
57101;SDS011;42982;54.558;18.508;2023-01-08T01:12:21;37.58;;;12.05;;
57101;SDS011;42982;54.558;18.508;2023-01-08T01:13:25;26.10;;;8.52;;
57101;SDS011;42982;54.558;18.508;2023-01-08T01:14:27;32.20;;;10.68;;
57101;SDS011;42982;54.558;18.508;2023-01-08T01:15:29;37.30;;;12.43;;
57101;SDS011;42982;54.558;18.508;2023-01-08T01:16:38;34.38;;;10.70;;
57101;SDS011;42982;54.558;18.508;2023-01-08T01:17:44;35.88;;;12.07;;
57101;SDS011;42982;54.558;18.508;2023-01-08T01:18:49;39.13;;;12.43;;
57101;SDS011;42982;54.558;18.508;2023-01-08T01:19:52;38.70;;;12.02;;
57101;SDS011;42982;54.558;18.508;2023-01-08T01:20:57;37.85;;;11.85;;
57101;SDS011;42982;54.558;18.508;2023-01-08T01:21:59;31.00;;;10.82;;
57101;SDS011;42982;54.558;18.508;2023-01-08T01:23:05;33.17;;;11.02;;
57101;SDS011;42982;54.558;18.508;2023-01-08T01:24:12;32.38;;;11.75;;
57101;SDS011;42982;54.558;18.508;2023-01-08T01:25:15;38.33;;;12.38;;
57101;SDS011;42982;54.558;18.508;2023-01-08T01:26:23;25.27;;;8.98;;
57101;SDS011;42982;54.558;18.508;2023-01-08T01:27:25;35.78;;;11.65;;
57101;SDS011;42982;54.558;18.508;2023-01-08T01:28:28;39.03;;;13.23;;
57101;SDS011;42982;54.558;18.508;2023-01-08T01:29:34;34.85;;;11.88;;
57101;SDS011;42982;54.558;18.508;2023-01-08T01:30:36;37.75;;;11.55;;
57101;SDS011;42982;54.558;18.508;2023-01-08T01:31:38;38.42;;;12.88;;
57101;SDS011;42982;54.558;18.508;2023-01-08T01:32:43;28.02;;;10.60;;
57101;SDS011;42982;54.558;18.508;2023-01-08T01:33:47;32.95;;;11.93;;
57101;SDS011;42982;54.558;18.508;2023-01-08T01:34:53;38.13;;;11.98;;
57101;SDS011;42982;54.558;18.508;2023-01-08T01:35:59;34.92;;;12.65;;
57101;SDS011;42982;54.558;18.508;2023-01-08T01:37:02;32.10;;;11.68;;
57101;SDS011;42982;54.558;18.508;2023-01-08T01:38:10;34.50;;;12.07;;
57101;SDS011;42982;54.558;18.508;2023-01-08T01:39:15;36.70;;;12.75;;
57101;SDS011;42982;54.558;18.508;2023-01-08T01:40:21;33.50;;;12.45;;
57101;SDS011;42982;54.558;18.508;2023-01-08T01:42:31;36.33;;;12.98;;
57101;SDS011;42982;54.558;18.508;2023-01-08T01:43:45;33.58;;;12.27;;
57101;SDS011;42982;54.558;18.508;2023-01-08T01:44:48;34.53;;;11.43;;
57101;SDS011;42982;54.558;18.508;2023-01-08T01:45:54;37.75;;;12.38;;
57101;SDS011;42982;54.558;18.508;2023-01-08T01:46:56;46.60;;;13.70;;
57101;SDS011;42982;54.558;18.508;2023-01-08T01:48:03;40.42;;;13.52;;
57101;SDS011;42982;54.558;18.508;2023-01-08T01:49:14;40.35;;;13.48;;
57101;SDS011;42982;54.558;18.508;2023-01-08T01:50:26;40.20;;;13.50;;
57101;SDS011;42982;54.558;18.508;2023-01-08T01:51:31;43.33;;;13.93;;
57101;SDS011;42982;54.558;18.508;2023-01-08T01:52:54;46.38;;;14.15;;
57101;SDS011;42982;54.558;18.508;2023-01-08T01:54:08;43.63;;;14.10;;
57101;SDS011;42982;54.558;18.508;2023-01-08T01:55:19;45.95;;;13.52;;
57101;SDS011;42982;54.558;18.508;2023-01-08T01:56:21;41.70;;;15.27;;
57101;SDS011;42982;54.558;18.508;2023-01-08T01:57:23;38.83;;;13.43;;
57101;SDS011;42982;54.558;18.508;2023-01-08T01:58:27;42.42;;;14.15;;
57101;SDS011;42982;54.558;18.508;2023-01-08T01:59:30;40.58;;;13.88;;
57101;SDS011;42982;54.558;18.508;2023-01-08T02:00:33;40.92;;;13.52;;
57101;SDS011;42982;54.558;18.508;2023-01-08T02:01:40;47.22;;;15.32;;
57101;SDS011;42982;54.558;18.508;2023-01-08T02:02:43;34.95;;;12.48;;
57101;SDS011;42982;54.558;18.508;2023-01-08T02:03:51;46.38;;;14.70;;
57101;SDS011;42982;54.558;18.508;2023-01-08T02:04:53;42.80;;;13.30;;
57101;SDS011;42982;54.558;18.508;2023-01-08T02:07:06;43.92;;;13.70;;
57101;SDS011;42982;54.558;18.508;2023-01-08T02:09:48;45.53;;;13.93;;
57101;SDS011;42982;54.558;18.508;2023-01-08T02:11:15;48.28;;;14.95;;
57101;SDS011;42982;54.558;18.508;2023-01-08T02:12:25;41.00;;;14.77;;
57101;SDS011;42982;54.558;18.508;2023-01-08T02:13:30;45.72;;;14.55;;
57101;SDS011;42982;54.558;18.508;2023-01-08T02:14:42;47.60;;;14.55;;
57101;SDS011;42982;54.558;18.508;2023-01-08T02:16:59;45.58;;;14.73;;
57101;SDS011;42982;54.558;18.508;2023-01-08T02:18:13;46.63;;;13.93;;
57101;SDS011;42982;54.558;18.508;2023-01-08T02:19:36;48.95;;;15.05;;
57101;SDS011;42982;54.558;18.508;2023-01-08T02:23:33;44.90;;;15.27;;
57101;SDS011;42982;54.558;18.508;2023-01-08T02:24:59;47.38;;;15.00;;
57101;SDS011;42982;54.558;18.508;2023-01-08T02:27:33;48.47;;;15.60;;
57101;SDS011;42982;54.558;18.508;2023-01-08T02:28:40;43.97;;;14.15;;
57101;SDS011;42982;54.558;18.508;2023-01-08T02:29:49;44.60;;;14.85;;
57101;SDS011;42982;54.558;18.508;2023-01-08T02:30:54;48.58;;;13.85;;
57101;SDS011;42982;54.558;18.508;2023-01-08T02:32:01;45.50;;;14.63;;
57101;SDS011;42982;54.558;18.508;2023-01-08T02:33:04;48.42;;;15.45;;
57101;SDS011;42982;54.558;18.508;2023-01-08T02:34:07;52.95;;;16.05;;
57101;SDS011;42982;54.558;18.508;2023-01-08T02:35:10;49.00;;;16.02;;
57101;SDS011;42982;54.558;18.508;2023-01-08T02:37:16;56.33;;;16.15;;
57101;SDS011;42982;54.558;18.508;2023-01-08T02:38:21;49.00;;;15.75;;
57101;SDS011;42982;54.558;18.508;2023-01-08T02:40:29;43.67;;;14.68;;
57101;SDS011;42982;54.558;18.508;2023-01-08T02:44:14;41.88;;;14.93;;
57101;SDS011;42982;54.558;18.508;2023-01-08T02:46:48;47.13;;;14.77;;
57101;SDS011;42982;54.558;18.508;2023-01-08T02:49:21;53.33;;;15.23;;
57101;SDS011;42982;54.558;18.508;2023-01-08T02:50:29;44.55;;;14.48;;
57101;SDS011;42982;54.558;18.508;2023-01-08T02:51:39;57.90;;;16.80;;
57101;SDS011;42982;54.558;18.508;2023-01-08T02:52:47;51.80;;;17.05;;
57101;SDS011;42982;54.558;18.508;2023-01-08T02:54:01;56.20;;;16.95;;
57101;SDS011;42982;54.558;18.508;2023-01-08T02:55:08;63.08;;;15.70;;
57101;SDS011;42982;54.558;18.508;2023-01-08T02:56:30;42.30;;;13.95;;
57101;SDS011;42982;54.558;18.508;2023-01-08T02:57:38;49.63;;;15.05;;
57101;SDS011;42982;54.558;18.508;2023-01-08T02:58:41;54.13;;;17.42;;
57101;SDS011;42982;54.558;18.508;2023-01-08T02:59:45;51.53;;;16.65;;
57101;SDS011;42982;54.558;18.508;2023-01-08T03:00:51;59.22;;;16.88;;
57101;SDS011;42982;54.558;18.508;2023-01-08T03:01:56;52.40;;;16.13;;
57101;SDS011;42982;54.558;18.508;2023-01-08T03:03:09;55.00;;;16.65;;
57101;SDS011;42982;54.558;18.508;2023-01-08T03:04:16;62.55;;;16.92;;
57101;SDS011;42982;54.558;18.508;2023-01-08T03:05:24;48.67;;;15.93;;
57101;SDS011;42982;54.558;18.508;2023-01-08T03:06:33;55.03;;;16.85;;
57101;SDS011;42982;54.558;18.508;2023-01-08T03:07:40;55.05;;;16.15;;
57101;SDS011;42982;54.558;18.508;2023-01-08T03:08:50;58.83;;;17.52;;
57101;SDS011;42982;54.558;18.508;2023-01-08T03:09:54;47.40;;;15.85;;
57101;SDS011;42982;54.558;18.508;2023-01-08T03:11:07;47.90;;;15.02;;
57101;SDS011;42982;54.558;18.508;2023-01-08T03:13:37;51.80;;;16.25;;
57101;SDS011;42982;54.558;18.508;2023-01-08T03:15:50;56.17;;;16.90;;
57101;SDS011;42982;54.558;18.508;2023-01-08T03:17:00;57.22;;;16.48;;
57101;SDS011;42982;54.558;18.508;2023-01-08T03:18:14;49.10;;;17.30;;
57101;SDS011;42982;54.558;18.508;2023-01-08T03:19:28;57.47;;;15.75;;
57101;SDS011;42982;54.558;18.508;2023-01-08T03:20:43;65.95;;;16.75;;
57101;SDS011;42982;54.558;18.508;2023-01-08T03:21:48;54.25;;;16.10;;
57101;SDS011;42982;54.558;18.508;2023-01-08T03:22:54;57.72;;;17.08;;
57101;SDS011;42982;54.558;18.508;2023-01-08T03:24:03;54.33;;;16.40;;
57101;SDS011;42982;54.558;18.508;2023-01-08T03:25:07;52.63;;;16.77;;
57101;SDS011;42982;54.558;18.508;2023-01-08T03:26:12;52.50;;;14.75;;
57101;SDS011;42982;54.558;18.508;2023-01-08T03:27:20;53.55;;;16.30;;
57101;SDS011;42982;54.558;18.508;2023-01-08T03:28:30;50.63;;;15.77;;
57101;SDS011;42982;54.558;18.508;2023-01-08T03:29:42;54.28;;;16.35;;
57101;SDS011;42982;54.558;18.508;2023-01-08T03:30:50;45.72;;;15.15;;
57101;SDS011;42982;54.558;18.508;2023-01-08T03:31:55;51.47;;;15.85;;
57101;SDS011;42982;54.558;18.508;2023-01-08T03:33:02;48.80;;;14.63;;
57101;SDS011;42982;54.558;18.508;2023-01-08T03:34:09;52.78;;;15.40;;
57101;SDS011;42982;54.558;18.508;2023-01-08T03:35:14;48.67;;;14.73;;
57101;SDS011;42982;54.558;18.508;2023-01-08T03:36:21;55.47;;;16.08;;
57101;SDS011;42982;54.558;18.508;2023-01-08T03:37:31;46.45;;;14.90;;
57101;SDS011;42982;54.558;18.508;2023-01-08T03:38:41;50.80;;;15.05;;
57101;SDS011;42982;54.558;18.508;2023-01-08T03:39:58;56.60;;;15.55;;
57101;SDS011;42982;54.558;18.508;2023-01-08T03:41:07;52.22;;;16.33;;
57101;SDS011;42982;54.558;18.508;2023-01-08T03:42:13;49.40;;;15.20;;
57101;SDS011;42982;54.558;18.508;2023-01-08T03:43:18;45.20;;;15.00;;
57101;SDS011;42982;54.558;18.508;2023-01-08T03:44:23;50.70;;;14.90;;
57101;SDS011;42982;54.558;18.508;2023-01-08T03:45:28;53.45;;;15.88;;
57101;SDS011;42982;54.558;18.508;2023-01-08T03:46:38;53.63;;;14.38;;
57101;SDS011;42982;54.558;18.508;2023-01-08T03:47:43;45.35;;;14.52;;
57101;SDS011;42982;54.558;18.508;2023-01-08T03:48:49;43.03;;;13.63;;
57101;SDS011;42982;54.558;18.508;2023-01-08T03:49:51;46.30;;;13.63;;
57101;SDS011;42982;54.558;18.508;2023-01-08T03:50:55;39.28;;;12.85;;
57101;SDS011;42982;54.558;18.508;2023-01-08T03:51:59;40.22;;;12.88;;
57101;SDS011;42982;54.558;18.508;2023-01-08T03:53:04;52.47;;;15.57;;
57101;SDS011;42982;54.558;18.508;2023-01-08T03:54:13;54.47;;;16.70;;
57101;SDS011;42982;54.558;18.508;2023-01-08T03:55:17;49.65;;;15.88;;
57101;SDS011;42982;54.558;18.508;2023-01-08T03:56:25;53.17;;;15.48;;
57101;SDS011;42982;54.558;18.508;2023-01-08T03:57:27;48.45;;;13.50;;
57101;SDS011;42982;54.558;18.508;2023-01-08T03:58:30;46.35;;;14.60;;
57101;SDS011;42982;54.558;18.508;2023-01-08T03:59:34;53.65;;;15.50;;
57101;SDS011;42982;54.558;18.508;2023-01-08T04:00:36;44.80;;;15.30;;
57101;SDS011;42982;54.558;18.508;2023-01-08T04:01:41;43.38;;;12.95;;
57101;SDS011;42982;54.558;18.508;2023-01-08T04:02:46;43.47;;;14.30;;
57101;SDS011;42982;54.558;18.508;2023-01-08T04:03:49;43.00;;;12.93;;
57101;SDS011;42982;54.558;18.508;2023-01-08T04:04:54;42.17;;;12.60;;
57101;SDS011;42982;54.558;18.508;2023-01-08T04:06:01;45.17;;;13.35;;
57101;SDS011;42982;54.558;18.508;2023-01-08T04:07:06;32.35;;;12.10;;
57101;SDS011;42982;54.558;18.508;2023-01-08T04:08:10;51.58;;;15.85;;
57101;SDS011;42982;54.558;18.508;2023-01-08T04:09:12;47.08;;;13.93;;
57101;SDS011;42982;54.558;18.508;2023-01-08T04:10:16;43.33;;;14.13;;
57101;SDS011;42982;54.558;18.508;2023-01-08T04:11:23;41.08;;;13.95;;
57101;SDS011;42982;54.558;18.508;2023-01-08T04:12:28;42.40;;;13.18;;
57101;SDS011;42982;54.558;18.508;2023-01-08T04:13:31;41.95;;;12.48;;
57101;SDS011;42982;54.558;18.508;2023-01-08T04:14:36;39.20;;;13.52;;
57101;SDS011;42982;54.558;18.508;2023-01-08T04:15:49;41.22;;;12.70;;
57101;SDS011;42982;54.558;18.508;2023-01-08T04:16:52;44.55;;;14.00;;
57101;SDS011;42982;54.558;18.508;2023-01-08T04:17:55;46.00;;;14.52;;
57101;SDS011;42982;54.558;18.508;2023-01-08T04:18:57;44.42;;;13.90;;
57101;SDS011;42982;54.558;18.508;2023-01-08T04:20:01;40.75;;;13.13;;
57101;SDS011;42982;54.558;18.508;2023-01-08T04:21:10;33.72;;;12.07;;
57101;SDS011;42982;54.558;18.508;2023-01-08T04:22:14;41.35;;;13.73;;
57101;SDS011;42982;54.558;18.508;2023-01-08T04:23:24;41.63;;;13.63;;
57101;SDS011;42982;54.558;18.508;2023-01-08T04:24:27;41.78;;;14.52;;
57101;SDS011;42982;54.558;18.508;2023-01-08T04:25:32;42.67;;;13.55;;
57101;SDS011;42982;54.558;18.508;2023-01-08T04:26:34;50.92;;;15.30;;
57101;SDS011;42982;54.558;18.508;2023-01-08T04:27:39;34.47;;;12.18;;
57101;SDS011;42982;54.558;18.508;2023-01-08T04:28:47;56.85;;;15.32;;
57101;SDS011;42982;54.558;18.508;2023-01-08T04:29:51;45.97;;;14.63;;
57101;SDS011;42982;54.558;18.508;2023-01-08T04:30:57;41.05;;;14.00;;
57101;SDS011;42982;54.558;18.508;2023-01-08T04:31:59;43.22;;;13.50;;
57101;SDS011;42982;54.558;18.508;2023-01-08T04:33:02;38.70;;;12.57;;
57101;SDS011;42982;54.558;18.508;2023-01-08T04:34:04;32.53;;;11.75;;
57101;SDS011;42982;54.558;18.508;2023-01-08T04:35:07;36.63;;;12.63;;
57101;SDS011;42982;54.558;18.508;2023-01-08T04:36:11;40.28;;;13.25;;
57101;SDS011;42982;54.558;18.508;2023-01-08T04:37:18;51.03;;;14.98;;
57101;SDS011;42982;54.558;18.508;2023-01-08T04:38:23;33.17;;;12.07;;
57101;SDS011;42982;54.558;18.508;2023-01-08T04:39:30;41.70;;;12.35;;
57101;SDS011;42982;54.558;18.508;2023-01-08T04:40:33;43.67;;;13.93;;
57101;SDS011;42982;54.558;18.508;2023-01-08T04:41:41;39.38;;;13.30;;
57101;SDS011;42982;54.558;18.508;2023-01-08T04:42:47;39.15;;;13.88;;
57101;SDS011;42982;54.558;18.508;2023-01-08T04:43:51;41.70;;;12.55;;
57101;SDS011;42982;54.558;18.508;2023-01-08T04:44:54;41.33;;;12.40;;
57101;SDS011;42982;54.558;18.508;2023-01-08T04:46:00;30.17;;;11.07;;
57101;SDS011;42982;54.558;18.508;2023-01-08T04:47:10;40.42;;;12.90;;
57101;SDS011;42982;54.558;18.508;2023-01-08T04:48:15;36.67;;;12.70;;
57101;SDS011;42982;54.558;18.508;2023-01-08T04:49:17;40.45;;;12.95;;
57101;SDS011;42982;54.558;18.508;2023-01-08T04:50:21;37.13;;;11.75;;
57101;SDS011;42982;54.558;18.508;2023-01-08T04:51:26;39.17;;;12.05;;
57101;SDS011;42982;54.558;18.508;2023-01-08T04:52:29;41.70;;;13.05;;
57101;SDS011;42982;54.558;18.508;2023-01-08T04:53:35;43.92;;;12.55;;
57101;SDS011;42982;54.558;18.508;2023-01-08T04:54:37;33.75;;;12.63;;
57101;SDS011;42982;54.558;18.508;2023-01-08T04:55:39;39.25;;;13.20;;
57101;SDS011;42982;54.558;18.508;2023-01-08T04:56:45;31.73;;;11.52;;
57101;SDS011;42982;54.558;18.508;2023-01-08T04:57:50;47.53;;;14.38;;
57101;SDS011;42982;54.558;18.508;2023-01-08T04:58:56;38.55;;;12.73;;
57101;SDS011;42982;54.558;18.508;2023-01-08T05:00:00;41.72;;;13.43;;
57101;SDS011;42982;54.558;18.508;2023-01-08T05:01:09;42.58;;;12.90;;
57101;SDS011;42982;54.558;18.508;2023-01-08T05:02:16;40.08;;;13.02;;
57101;SDS011;42982;54.558;18.508;2023-01-08T05:03:18;43.65;;;14.20;;
57101;SDS011;42982;54.558;18.508;2023-01-08T05:04:20;37.50;;;12.18;;
57101;SDS011;42982;54.558;18.508;2023-01-08T05:05:25;33.50;;;11.63;;
57101;SDS011;42982;54.558;18.508;2023-01-08T05:06:31;39.42;;;13.57;;
57101;SDS011;42982;54.558;18.508;2023-01-08T05:07:33;42.95;;;12.50;;
57101;SDS011;42982;54.558;18.508;2023-01-08T05:08:46;34.78;;;10.38;;
57101;SDS011;42982;54.558;18.508;2023-01-08T05:09:50;43.78;;;14.02;;
57101;SDS011;42982;54.558;18.508;2023-01-08T05:10:52;32.38;;;11.02;;
57101;SDS011;42982;54.558;18.508;2023-01-08T05:11:58;30.08;;;10.93;;
57101;SDS011;42982;54.558;18.508;2023-01-08T05:13:01;39.15;;;12.88;;
57101;SDS011;42982;54.558;18.508;2023-01-08T05:14:05;36.75;;;11.25;;
57101;SDS011;42982;54.558;18.508;2023-01-08T05:15:11;44.40;;;14.07;;
57101;SDS011;42982;54.558;18.508;2023-01-08T05:16:15;40.70;;;14.23;;
57101;SDS011;42982;54.558;18.508;2023-01-08T05:17:17;41.40;;;12.38;;
57101;SDS011;42982;54.558;18.508;2023-01-08T05:18:20;26.05;;;9.65;;
57101;SDS011;42982;54.558;18.508;2023-01-08T05:19:25;37.15;;;12.13;;
57101;SDS011;42982;54.558;18.508;2023-01-08T05:20:33;38.88;;;13.65;;
57101;SDS011;42982;54.558;18.508;2023-01-08T05:21:38;37.42;;;12.43;;
57101;SDS011;42982;54.558;18.508;2023-01-08T05:22:44;36.30;;;12.63;;
57101;SDS011;42982;54.558;18.508;2023-01-08T05:23:48;45.47;;;13.55;;
57101;SDS011;42982;54.558;18.508;2023-01-08T05:24:49;42.03;;;13.70;;
57101;SDS011;42982;54.558;18.508;2023-01-08T05:25:51;43.70;;;13.95;;
57101;SDS011;42982;54.558;18.508;2023-01-08T05:26:57;34.83;;;10.27;;
57101;SDS011;42982;54.558;18.508;2023-01-08T05:28:02;39.88;;;14.18;;
57101;SDS011;42982;54.558;18.508;2023-01-08T05:29:10;37.00;;;12.45;;
57101;SDS011;42982;54.558;18.508;2023-01-08T05:30:13;41.38;;;13.05;;
57101;SDS011;42982;54.558;18.508;2023-01-08T05:31:16;33.35;;;11.18;;
57101;SDS011;42982;54.558;18.508;2023-01-08T05:32:19;37.50;;;12.57;;
57101;SDS011;42982;54.558;18.508;2023-01-08T05:33:24;28.35;;;10.73;;
57101;SDS011;42982;54.558;18.508;2023-01-08T05:34:31;37.28;;;12.25;;
57101;SDS011;42982;54.558;18.508;2023-01-08T05:35:34;27.75;;;9.27;;
57101;SDS011;42982;54.558;18.508;2023-01-08T05:36:41;28.90;;;10.90;;
57101;SDS011;42982;54.558;18.508;2023-01-08T05:37:44;32.40;;;11.35;;
57101;SDS011;42982;54.558;18.508;2023-01-08T05:38:51;29.33;;;11.50;;
57101;SDS011;42982;54.558;18.508;2023-01-08T05:39:53;26.33;;;10.25;;
57101;SDS011;42982;54.558;18.508;2023-01-08T05:40:56;27.13;;;10.48;;
57101;SDS011;42982;54.558;18.508;2023-01-08T05:42:01;26.00;;;10.73;;
57101;SDS011;42982;54.558;18.508;2023-01-08T05:43:06;28.42;;;11.23;;
57101;SDS011;42982;54.558;18.508;2023-01-08T05:44:11;29.20;;;11.35;;
57101;SDS011;42982;54.558;18.508;2023-01-08T05:45:15;29.42;;;9.82;;
57101;SDS011;42982;54.558;18.508;2023-01-08T05:46:17;21.33;;;7.65;;
57101;SDS011;42982;54.558;18.508;2023-01-08T05:47:22;25.95;;;10.40;;
57101;SDS011;42982;54.558;18.508;2023-01-08T05:48:26;27.23;;;11.30;;
57101;SDS011;42982;54.558;18.508;2023-01-08T05:49:36;38.05;;;13.20;;
57101;SDS011;42982;54.558;18.508;2023-01-08T05:50:41;36.70;;;10.23;;
57101;SDS011;42982;54.558;18.508;2023-01-08T05:51:46;34.38;;;11.73;;
57101;SDS011;42982;54.558;18.508;2023-01-08T05:52:51;31.50;;;11.98;;
57101;SDS011;42982;54.558;18.508;2023-01-08T05:53:53;30.35;;;10.25;;
57101;SDS011;42982;54.558;18.508;2023-01-08T05:54:56;32.17;;;11.38;;
57101;SDS011;42982;54.558;18.508;2023-01-08T05:56:06;25.80;;;10.00;;
57101;SDS011;42982;54.558;18.508;2023-01-08T05:57:10;28.58;;;10.45;;
57101;SDS011;42982;54.558;18.508;2023-01-08T05:58:12;31.15;;;10.73;;
57101;SDS011;42982;54.558;18.508;2023-01-08T05:59:18;32.40;;;10.25;;
57101;SDS011;42982;54.558;18.508;2023-01-08T06:00:23;22.73;;;9.88;;
57101;SDS011;42982;54.558;18.508;2023-01-08T06:01:26;30.38;;;11.07;;
57101;SDS011;42982;54.558;18.508;2023-01-08T06:02:31;26.23;;;10.85;;
57101;SDS011;42982;54.558;18.508;2023-01-08T06:03:35;25.73;;;9.00;;
57101;SDS011;42982;54.558;18.508;2023-01-08T06:04:43;25.95;;;9.05;;
57101;SDS011;42982;54.558;18.508;2023-01-08T06:05:48;30.23;;;11.07;;
57101;SDS011;42982;54.558;18.508;2023-01-08T06:06:50;19.33;;;8.38;;
57101;SDS011;42982;54.558;18.508;2023-01-08T06:07:53;28.20;;;10.88;;
57101;SDS011;42982;54.558;18.508;2023-01-08T06:08:58;27.27;;;11.57;;
57101;SDS011;42982;54.558;18.508;2023-01-08T06:10:05;31.42;;;11.82;;
57101;SDS011;42982;54.558;18.508;2023-01-08T06:11:11;44.20;;;13.88;;
57101;SDS011;42982;54.558;18.508;2023-01-08T06:12:15;39.78;;;12.57;;
57101;SDS011;42982;54.558;18.508;2023-01-08T06:13:16;43.90;;;14.55;;
57101;SDS011;42982;54.558;18.508;2023-01-08T06:14:20;38.60;;;13.52;;
57101;SDS011;42982;54.558;18.508;2023-01-08T06:15:24;37.78;;;12.90;;
57101;SDS011;42982;54.558;18.508;2023-01-08T06:16:29;38.17;;;12.13;;
57101;SDS011;42982;54.558;18.508;2023-01-08T06:17:33;36.38;;;12.80;;
57101;SDS011;42982;54.558;18.508;2023-01-08T06:18:36;37.00;;;12.98;;
57101;SDS011;42982;54.558;18.508;2023-01-08T06:19:47;41.58;;;15.02;;
57101;SDS011;42982;54.558;18.508;2023-01-08T06:20:53;42.28;;;14.48;;
57101;SDS011;42982;54.558;18.508;2023-01-08T06:21:58;37.60;;;12.90;;
57101;SDS011;42982;54.558;18.508;2023-01-08T06:23:00;34.58;;;13.65;;
57101;SDS011;42982;54.558;18.508;2023-01-08T06:24:03;47.40;;;15.20;;
57101;SDS011;42982;54.558;18.508;2023-01-08T06:25:07;27.92;;;12.05;;
57101;SDS011;42982;54.558;18.508;2023-01-08T06:26:13;36.95;;;13.82;;
57101;SDS011;42982;54.558;18.508;2023-01-08T06:27:17;44.92;;;15.07;;
57101;SDS011;42982;54.558;18.508;2023-01-08T06:28:22;40.33;;;13.48;;
57101;SDS011;42982;54.558;18.508;2023-01-08T06:29:24;42.25;;;15.95;;
57101;SDS011;42982;54.558;18.508;2023-01-08T06:30:27;38.63;;;14.30;;
57101;SDS011;42982;54.558;18.508;2023-01-08T06:31:32;40.92;;;14.70;;
57101;SDS011;42982;54.558;18.508;2023-01-08T06:32:36;40.22;;;14.55;;
57101;SDS011;42982;54.558;18.508;2023-01-08T06:33:42;32.88;;;12.60;;
57101;SDS011;42982;54.558;18.508;2023-01-08T06:34:50;41.70;;;14.60;;
57101;SDS011;42982;54.558;18.508;2023-01-08T06:35:54;40.03;;;13.88;;
57101;SDS011;42982;54.558;18.508;2023-01-08T06:37:03;38.90;;;13.82;;
57101;SDS011;42982;54.558;18.508;2023-01-08T06:38:05;36.67;;;12.63;;